Terminal Aerodrome Forecast
Issued by NWS Grand Forks, ND

Home | Current Version | Previous Version | Text Only | Print | Product List | Glossary Off
Versions: 1 2 3 4 5 6 7 8 9 10 11 12 13 14 15 16 17 18 19

000
FTUS43 KFGF 260700 AAB
TAFFAR
TAF AMD
KFAR 260718Z 2607/2706 36017KT P6SM OVC050
      TEMPO 2607/2610 3SM -SN OVC015
     FM261000 36017KT 5SM -SN OVC025
     FM261300 35017KT P6SM SCT025
     FM261500 36015KT P6SM FEW020=

USA.gov is the U.S. government's official web portal to all federal, state and local government web resources and services.